Time;durP1;ratioP1;P1;durP2;ratioP2;P2;SDS_P1;SDS_P2;PMS_P1;PMS_P2;Temp;Humidity;BMP_temperature;BMP_pressure;BME280_temperature;BME280_humidity;BME280_pressure;Samples;Min_cycle;Max_cycle;Signal;HPM_P1;HPM_P2
2020/12/19 00:01:16;;;;;;;33.98;19.48;;;;;;;0.71;71.38;102292.76;1686697;83;21195;-79
2020/12/19 00:03:44;;;;;;;41.10;20.92;;;;;;;0.70;71.43;102291.91;1686425;83;20955;-79
2020/12/19 00:06:12;;;;;;;37.80;18.62;;;;;;;0.68;71.42;102288.88;1686742;83;21057;-79
2020/12/19 00:08:41;;;;;;;40.05;19.35;;;;;;;0.67;71.50;102288.02;1686549;82;21082;-81
2020/12/19 00:11:09;;;;;;;36.28;20.08;;;;;;;0.63;71.54;102287.55;1686534;83;20943;-79
2020/12/19 00:13:37;;;;;;;30.00;17.77;;;;;;;0.61;71.57;102281.51;1686508;83;21414;-78
2020/12/19 00:16:06;;;;;;;31.02;18.50;;;;;;;0.59;71.80;102284.06;1686601;83;21524;-79
2020/12/19 00:18:34;;;;;;;30.70;18.30;;;;;;;0.57;71.80;102280.61;1686509;83;20963;-78
2020/12/19 00:21:03;;;;;;;36.55;21.07;;;;;;;0.55;71.83;102279.73;1686488;83;20998;-80
2020/12/19 00:23:30;;;;;;;45.35;23.25;;;;;;;0.52;71.85;102271.97;1686614;83;21504;-78
2020/12/19 00:25:59;;;;;;;40.20;23.27;;;;;;;0.48;71.94;102270.21;1686700;83;22022;-79
2020/12/19 00:28:27;;;;;;;37.95;21.62;;;;;;;0.47;72.00;102274.06;1686816;83;20971;-78
2020/12/19 00:30:55;;;;;;;40.33;22.80;;;;;;;0.45;72.00;102262.45;1686507;83;21028;-78
2020/12/19 00:33:23;;;;;;;47.20;25.23;;;;;;;0.48;71.93;102262.91;1686556;83;21050;-78
2020/12/19 00:35:51;;;;;;;45.10;23.30;;;;;;;0.46;71.95;102256.86;1686576;83;21002;-79
2020/12/19 00:38:20;;;;;;;46.92;26.30;;;;;;;0.46;71.90;102249.12;1699636;83;21169;-79
2020/12/19 00:40:49;;;;;;;37.95;20.20;;;;;;;0.43;71.84;102256.41;1701773;83;20981;-79
2020/12/19 00:43:17;;;;;;;35.55;19.62;;;;;;;0.42;71.77;102253.37;1726165;81;20966;-77
2020/12/19 00:45:45;;;;;;;33.23;18.15;;;;;;;0.38;71.78;102252.94;1726353;81;21522;-77
2020/12/19 00:48:13;;;;;;;35.92;16.73;;;;;;;0.34;71.74;102252.03;1726367;82;20977;-77
2020/12/19 00:50:43;;;;;;;31.42;17.42;;;;;;;0.29;71.87;102248.56;1730463;81;21451;-78
2020/12/19 00:53:11;;;;;;;28.42;13.83;;;;;;;0.29;72.01;102248.96;1726046;81;20990;-79
2020/12/19 00:55:39;;;;;;;32.73;15.53;;;;;;;0.29;71.94;102250.25;1726170;81;20970;-76
2020/12/19 00:58:07;;;;;;;26.75;13.03;;;;;;;0.24;71.92;102248.06;1726379;82;20969;-78
2020/12/19 01:00:35;;;;;;;27.87;14.70;;;;;;;0.23;72.08;102250.22;1726410;82;20990;-78
2020/12/19 01:03:03;;;;;;;28.12;15.32;;;;;;;0.20;72.29;102251.03;1726304;81;21775;-77
2020/12/19 01:05:31;;;;;;;24.43;14.20;;;;;;;0.23;72.35;102247.20;1730670;81;21061;-77
2020/12/19 01:07:59;;;;;;;30.20;14.75;;;;;;;0.24;72.34;102239.89;1726173;82;20961;-78
2020/12/19 01:10:27;;;;;;;26.30;13.50;;;;;;;0.27;72.31;102231.31;1726179;81;20986;-77
2020/12/19 01:12:55;;;;;;;32.80;15.15;;;;;;;0.25;72.31;102228.73;1726391;82;20966;-78
2020/12/19 01:15:24;;;;;;;28.17;15.85;;;;;;;0.24;72.32;102230.86;1726216;81;20998;-77
2020/12/19 01:17:52;;;;;;;30.37;15.65;;;;;;;0.22;72.47;102230.41;1726167;82;21625;-78
2020/12/19 01:20:22;;;;;;;29.05;15.43;;;;;;;0.24;72.51;102228.72;1701992;83;21061;-77
2020/12/19 01:22:50;;;;;;;33.42;15.38;;;;;;;0.25;72.61;102222.72;1726453;81;20965;-78
2020/12/19 01:25:19;;;;;;;28.62;15.68;;;;;;;0.24;72.56;102223.13;1726258;81;20962;-78
2020/12/19 01:27:47;;;;;;;32.05;14.90;;;;;;;0.24;72.66;102221.83;1726385;81;21004;-79
2020/12/19 01:30:15;;;;;;;27.95;14.73;;;;;;;0.25;72.71;102215.84;1726316;82;20946;-80
2020/12/19 01:32:43;;;;;;;25.25;14.28;;;;;;;0.27;72.64;102213.25;1701943;83;21049;-78
2020/12/19 01:35:13;;;;;;;25.15;13.75;;;;;;;0.26;72.63;102220.13;1701836;83;20981;-79
2020/12/19 01:37:43;;;;;;;20.15;12.53;;;;;;;0.26;72.65;102213.68;1726356;81;21037;-80
2020/12/19 01:40:12;;;;;;;25.23;11.75;;;;;;;0.29;72.54;102220.18;1702431;82;21162;-79
2020/12/19 01:42:39;;;;;;;25.70;14.28;;;;;;;0.30;72.33;102215.44;1726375;81;21514;-78
2020/12/19 01:45:08;;;;;;;30.77;15.85;;;;;;;0.28;72.39;102221.45;1726196;81;20954;-78
2020/12/19 01:47:42;;;;;;;;;;;;;;;0.28;72.40;102218.87;1748214;80;20934;-84
2020/12/19 01:50:11;;;;;;;22.15;13.85;;;;;;;0.27;72.43;102223.17;1707494;83;20146;-85
2020/12/19 01:52:38;;;;;;;24.80;14.40;;;;;;;0.26;72.54;102208.52;1723820;82;21040;-84
2020/12/19 01:55:07;;;;;;;22.65;12.45;;;;;;;0.22;72.61;102212.36;1723787;81;21029;-84
2020/12/19 01:57:35;;;;;;;28.73;15.38;;;;;;;0.20;72.74;102211.94;1723793;82;21036;-83
2020/12/19 02:00:04;;;;;;;24.30;15.00;;;;;;;0.16;72.89;102208.02;1723757;81;20946;-85
2020/12/19 02:02:31;;;;;;;25.02;14.90;;;;;;;0.17;73.01;102208.02;1723775;82;20961;-84
2020/12/19 02:05:01;;;;;;;24.15;14.18;;;;;;;0.13;73.12;102205.41;1747100;81;20957;-82
2020/12/19 02:07:29;;;;;;;29.63;15.90;;;;;;;0.15;73.29;102209.72;1723608;82;21032;-83
2020/12/19 02:09:57;;;;;;;28.27;15.15;;;;;;;0.16;73.35;102209.31;1723810;82;20977;-83
2020/12/19 02:12:25;;;;;;;28.35;15.48;;;;;;;0.15;73.38;102203.27;1723822;82;21052;-82
2020/12/19 02:14:58;;;;;;;27.90;15.85;;;;;;;0.14;73.44;102199.41;1723829;82;21387;-83
2020/12/19 02:17:25;;;;;;;26.35;13.85;;;;;;;0.12;73.56;102198.53;1723826;82;22101;-82
2020/12/19 02:19:53;;;;;;;39.10;17.50;;;;;;;0.11;73.53;102198.96;1723644;82;20973;-81
2020/12/19 02:22:22;;;;;;;28.52;15.63;;;;;;;0.08;73.64;102192.90;1723893;81;21511;-81
2020/12/19 02:24:50;;;;;;;30.45;16.70;;;;;;;0.08;73.68;102197.62;1723657;82;20977;-82
2020/12/19 02:27:18;;;;;;;30.27;15.65;;;;;;;0.07;73.74;102197.20;1723796;81;21375;-84
2020/12/19 02:29:46;;;;;;;32.73;15.38;;;;;;;0.08;73.72;102200.20;1723762;82;21462;-82
2020/12/19 02:32:15;;;;;;;31.85;16.90;;;;;;;0.07;73.83;102204.94;1723656;82;21075;-83
2020/12/19 02:34:43;;;;;;;35.52;18.35;;;;;;;0.11;73.74;102201.54;1723679;81;21107;-82
2020/12/19 02:37:12;;;;;;;31.93;16.30;;;;;;;0.13;73.80;102204.11;1723797;82;20970;-82
2020/12/19 02:39:40;;;;;;;29.95;16.62;;;;;;;0.15;73.66;102200.69;1723936;82;21395;-82
2020/12/19 02:42:08;;;;;;;27.48;16.40;;;;;;;0.17;73.59;102198.98;1723808;81;21173;-82
2020/12/19 02:44:36;;;;;;;32.65;16.73;;;;;;;0.18;73.60;102206.33;1723658;82;21004;-83
2020/12/19 02:47:04;;;;;;;29.42;15.98;;;;;;;0.17;73.50;102208.02;1724546;82;20961;-82
2020/12/19 02:49:32;;;;;;;25.08;14.30;;;;;;;0.18;73.50;102200.73;1725468;81;20953;-82
2020/12/19 02:52:01;;;;;;;27.87;15.05;;;;;;;0.18;73.42;102205.04;1725304;82;20965;-81
2020/12/19 02:54:29;;;;;;;29.48;16.55;;;;;;;0.17;73.49;102200.28;1725583;82;21644;-82
2020/12/19 02:56:57;;;;;;;30.75;17.73;;;;;;;0.22;73.46;102198.17;1724468;82;21013;-83
2020/12/19 02:59:25;;;;;;;27.93;15.10;;;;;;;0.22;73.49;102199.02;1724632;82;20969;-82
2020/12/19 03:01:53;;;;;;;29.42;14.95;;;;;;;0.24;73.24;102198.61;1726686;82;20965;-80
2020/12/19 03:04:21;;;;;;;27.87;15.13;;;;;;;0.22;73.32;102199.45;1724960;81;20914;-81
2020/12/19 03:06:49;;;;;;;28.60;17.15;;;;;;;0.23;73.33;102201.20;1723794;82;21131;-82
2020/12/19 03:09:19;;;;;;;30.85;15.58;;;;;;;0.21;73.27;102193.44;1724007;82;21507;-86
2020/12/19 03:11:48;;;;;;;29.98;15.95;;;;;;;0.19;73.25;102190.84;1747413;82;21036;-84
2020/12/19 03:14:19;;;;;;;28.00;15.80;;;;;;;0.15;73.37;102194.67;1724032;82;21025;-86
2020/12/19 03:16:47;;;;;;;22.93;13.50;;;;;;;0.18;73.36;102189.56;1718041;82;21613;-85
2020/12/19 03:19:16;;;;;;;31.20;16.70;;;;;;;0.15;73.37;102188.22;1723984;82;21708;-83
2020/12/19 03:21:45;;;;;;;27.42;16.73;;;;;;;0.15;73.41;102186.50;1724107;82;21628;-85
2020/12/19 03:24:13;;;;;;;29.02;15.32;;;;;;;0.15;73.52;102181.78;1725543;82;21013;-84
2020/12/19 03:26:41;;;;;;;27.80;15.53;;;;;;;0.15;73.55;102181.78;1725853;82;21375;-84
2020/12/19 03:29:09;;;;;;;25.30;14.30;;;;;;;0.16;73.66;102179.66;1725753;82;21005;-83
2020/12/19 03:31:38;;;;;;;27.60;16.23;;;;;;;0.17;73.55;102173.63;1725570;82;22155;-84
2020/12/19 03:34:06;;;;;;;25.43;14.95;;;;;;;0.20;73.55;102176.22;1726909;82;21044;-87
2020/12/19 03:36:36;;;;;;;22.90;14.25;;;;;;;0.22;73.50;102175.80;1727827;81;21072;-85
2020/12/19 03:39:04;;;;;;;29.65;16.67;;;;;;;0.24;73.44;102172.81;1726329;82;21150;-84
2020/12/19 03:41:32;;;;;;;31.68;16.20;;;;;;;0.25;73.39;102187.46;1725696;82;20964;-84
2020/12/19 03:44:02;;;;;;;29.37;17.27;;;;;;;0.28;73.36;102182.75;1727290;81;21583;-85
2020/12/19 03:46:30;;;;;;;31.27;17.85;;;;;;;0.31;73.35;102188.81;1708403;81;20903;-86
2020/12/19 03:48:59;;;;;;;27.80;16.95;;;;;;;0.36;73.31;102187.55;1729942;82;20969;-83
2020/12/19 03:51:34;;;;;;;30.37;16.80;;;;;;;0.37;73.29;102190.12;1709632;77;21029;31
2020/12/19 03:54:02;;;;;;;28.40;16.48;;;;;;;0.39;73.18;102192.28;1697455;82;20998;-75
2020/12/19 03:56:30;;;;;;;30.77;17.90;;;;;;;0.38;73.24;102194.44;1700229;82;21055;-74
2020/12/19 03:58:58;;;;;;;34.03;18.95;;;;;;;0.39;73.24;102191.00;1700066;82;21009;-75
2020/12/19 04:01:26;;;;;;;35.50;17.55;;;;;;;0.40;73.22;102194.03;1700174;82;20970;-77
2020/12/19 04:03:55;;;;;;;30.88;17.17;;;;;;;0.44;73.15;102184.58;1700268;82;21546;-74
2020/12/19 04:06:23;;;;;;;34.95;17.32;;;;;;;0.44;73.09;102181.14;1700123;82;20986;-77
2020/12/19 04:08:51;;;;;;;26.45;17.12;;;;;;;0.43;73.01;102183.30;1700138;82;20986;-76
2020/12/19 04:11:19;;;;;;;29.00;16.32;;;;;;;0.39;72.90;102184.55;1700160;82;21527;-76
2020/12/19 04:13:51;;;;;;;30.23;17.35;;;;;;;0.35;72.94;102177.62;1700271;82;21041;-74
2020/12/19 04:16:19;;;;;;;33.10;17.07;;;;;;;0.33;72.92;102178.04;1700013;83;20982;-76
2020/12/19 04:18:47;;;;;;;31.68;17.00;;;;;;;0.29;73.05;102177.61;1700058;83;21033;-75
2020/12/19 04:21:15;;;;;;;27.30;16.57;;;;;;;0.30;73.11;102177.17;1700091;83;22428;-74
2020/12/19 04:23:43;;;;;;;34.40;17.25;;;;;;;0.29;73.17;102175.42;1700006;83;20989;-76
2020/12/19 04:26:11;;;;;;;27.95;17.05;;;;;;;0.30;73.17;102177.17;1700144;83;20967;-75
2020/12/19 04:28:38;;;;;;;26.90;16.20;;;;;;;0.29;73.24;102181.48;1699975;83;20954;-76
2020/12/19 04:31:07;;;;;;;30.00;16.50;;;;;;;0.31;73.28;102178.48;1700107;82;21447;-76
2020/12/19 04:33:35;;;;;;;26.40;15.43;;;;;;;0.30;73.25;102182.33;1700027;82;21032;-76
2020/12/19 04:36:03;;;;;;;27.77;16.27;;;;;;;0.30;73.19;102182.33;1700288;82;21001;-77
2020/12/19 04:38:31;;;;;;;28.75;17.73;;;;;;;0.27;73.27;102182.29;1700188;82;21417;-76
2020/12/19 04:41:00;;;;;;;32.03;18.17;;;;;;;0.28;73.28;102179.73;1700166;82;20986;-78
2020/12/19 04:43:28;;;;;;;33.88;20.97;;;;;;;0.27;73.35;102179.31;1700476;82;21543;-77
2020/12/19 04:45:56;;;;;;;32.70;17.65;;;;;;;0.28;73.37;102184.03;1700403;82;21041;-76
2020/12/19 04:48:24;;;;;;;34.65;18.55;;;;;;;0.26;73.40;102185.30;1700221;82;21670;-76
2020/12/19 04:50:52;;;;;;;32.95;18.80;;;;;;;0.26;73.44;102175.42;1700294;82;20970;-77
2020/12/19 04:53:21;;;;;;;34.25;19.92;;;;;;;0.28;73.47;102181.02;1699799;82;20938;-76
2020/12/19 04:55:49;;;;;;;30.00;17.73;;;;;;;0.29;73.40;102187.04;1716491;80;21035;-82
2020/12/19 04:58:19;;;;;;;35.70;18.90;;;;;;;0.30;73.37;102189.64;1696799;82;21002;-84
2020/12/19 05:00:48;;;;;;;29.87;18.27;;;;;;;0.32;73.48;102186.65;1681178;84;21546;-82
2020/12/19 05:03:16;;;;;;;34.80;18.95;;;;;;;0.34;73.37;102185.38;1691119;83;21397;-82
2020/12/19 05:05:45;;;;;;;32.95;18.40;;;;;;;0.34;73.39;102180.22;1690810;83;20927;-85
2020/12/19 05:08:14;;;;;;;34.80;19.98;;;;;;;0.38;73.36;102189.28;1693193;83;21372;-82
2020/12/19 05:10:45;;;;;;;29.02;18.10;;;;;;;0.38;73.26;102184.12;1693616;83;20993;-83
2020/12/19 05:13:13;;;;;;;35.70;20.23;;;;;;;0.41;73.33;102188.00;1692145;83;21046;-82
2020/12/19 05:15:41;;;;;;;34.88;18.62;;;;;;;0.45;73.25;102186.32;1691830;83;21030;-85
2020/12/19 05:18:09;;;;;;;32.10;19.62;;;;;;;0.48;73.20;102188.05;1690914;83;20975;-86
2020/12/19 05:20:38;;;;;;;29.98;17.25;;;;;;;0.49;73.18;102184.61;1691119;83;20963;-84
2020/12/19 05:23:08;;;;;;;33.45;19.07;;;;;;;0.50;72.98;102183.77;1690974;83;21177;-83
2020/12/19 05:25:39;;;;;;;33.48;18.25;;;;;;;0.49;73.01;102182.03;1691161;83;20986;-82
2020/12/19 05:28:08;;;;;;;31.00;18.55;;;;;;;0.48;73.01;102181.17;1691596;83;20987;-83
2020/12/19 05:30:36;;;;;;;40.28;21.97;;;;;;;0.50;73.05;102182.05;1646175;83;21137;-84
2020/12/19 05:33:04;;;;;;;34.95;19.80;;;;;;;0.54;72.99;102182.95;1691238;83;21520;-85
2020/12/19 05:35:34;;;;;;;46.02;23.90;;;;;;;0.57;72.89;102189.41;1690914;83;21192;-84
2020/12/19 05:38:05;;;;;;;36.15;19.73;;;;;;;0.60;72.87;102186.83;1647398;83;21520;-83
2020/12/19 05:40:34;;;;;;;34.95;20.17;;;;;;;0.60;72.82;102189.02;1691150;83;21062;-85
2020/12/19 05:43:02;;;;;;;42.43;22.45;;;;;;;0.61;72.86;102193.73;1691169;83;21058;-86
2020/12/19 05:45:30;;;;;;;39.40;22.77;;;;;;;0.62;72.91;102199.33;1691110;83;20959;-87
2020/12/19 05:48:00;;;;;;;43.35;23.87;;;;;;;0.64;72.86;102208.38;1718078;83;21484;-86
2020/12/19 05:50:28;;;;;;;43.73;25.50;;;;;;;0.64;72.84;102207.95;1691049;83;21089;-86
2020/12/19 05:52:57;;;;;;;34.53;20.95;;;;;;;0.66;72.76;102209.25;1691032;83;20951;-82
2020/12/19 05:55:25;;;;;;;42.75;20.52;;;;;;;0.67;72.74;102214.84;1685900;83;21500;-83
2020/12/19 05:57:53;;;;;;;38.28;21.48;;;;;;;0.65;72.69;102214.00;1641826;84;20983;-82
2020/12/19 06:00:21;;;;;;;35.88;18.67;;;;;;;0.64;72.64;102218.27;1664345;84;20986;-83
2020/12/19 06:02:50;;;;;;;34.78;17.95;;;;;;;0.63;72.63;102227.32;1663704;84;21563;-83
2020/12/19 06:05:18;;;;;;;35.80;16.97;;;;;;;0.60;72.68;102222.97;1665347;84;20991;-84
2020/12/19 06:07:48;;;;;;;33.60;17.12;;;;;;;0.56;72.72;102226.41;1664514;84;20990;-79
2020/12/19 06:10:18;;;;;;;37.53;16.10;;;;;;;0.52;72.87;102230.67;1664399;84;21484;-83
2020/12/19 06:13:00;;;;;;;34.23;17.77;;;;;;;0.49;73.02;102229.77;1664787;84;21203;-83
2020/12/19 06:16:04;;;;;;;37.93;17.87;;;;;;;0.47;73.23;102235.34;1664515;84;21117;-83
2020/12/19 06:18:56;;;;;;;36.83;17.62;;;;;;;0.47;73.33;102232.77;1665520;84;20971;-84
2020/12/19 06:21:26;;;;;;;35.40;18.60;;;;;;;0.44;73.44;102228.45;1665924;84;21077;-83
2020/12/19 06:23:54;;;;;;;32.73;16.45;;;;;;;0.46;73.55;102228.47;1664038;84;20958;-84
2020/12/19 06:26:37;;;;;;;40.20;19.23;;;;;;;0.44;73.62;102240.50;1664094;84;21072;-78
2020/12/19 06:29:05;;;;;;;37.88;18.90;;;;;;;0.40;73.73;102234.03;1665102;84;21404;-79
2020/12/19 06:31:34;;;;;;;34.20;17.87;;;;;;;0.39;73.88;102231.43;1663873;84;21046;-80
2020/12/19 06:34:04;;;;;;;37.28;17.65;;;;;;;0.37;74.02;102239.14;1664192;84;21515;-82
2020/12/19 06:36:34;;;;;;;36.73;19.05;;;;;;;0.38;74.18;102237.45;1664198;84;20959;-78
2020/12/19 06:39:10;;;;;;;33.05;16.10;;;;;;;0.39;74.20;102240.03;1663974;84;21363;-79
2020/12/19 06:44:32;;;;;;;46.05;22.15;;;;;;;0.44;74.43;102232.75;1852969;77;22045;-80
2020/12/19 06:47:05;;;;;;;35.78;17.25;;;;;;;0.40;74.53;102241.77;1789029;78;20934;-79
2020/12/19 06:49:36;;;;;;;36.55;19.37;;;;;;;0.47;74.45;102240.11;1748502;82;21156;-82
2020/12/19 06:52:15;;;;;;;41.28;20.90;;;;;;;0.48;74.51;102243.11;1763559;78;21427;-80
2020/12/19 06:54:46;;;;;;;39.10;19.48;;;;;;;0.49;74.51;102243.97;1758768;78;20935;-78
2020/12/19 06:57:30;;;;;;;39.08;20.52;;;;;;;0.50;74.55;102236.68;1721230;82;20979;-79
2020/12/19 07:00:21;;;;;;;35.85;17.02;;;;;;;0.52;74.57;102247.88;1788899;78;20993;-80
2020/12/19 07:03:03;;;;;;;41.70;20.80;;;;;;;0.53;74.57;102244.00;1784189;78;21031;-86
2020/12/19 07:05:33;;;;;;;38.85;21.05;;;;;;;0.57;74.54;102249.63;1764123;80;20994;-82
2020/12/19 07:08:22;;;;;;;40.10;18.95;;;;;;;0.58;74.41;102238.47;1786861;79;20932;-86
2020/12/19 07:10:52;;;;;;;39.78;21.07;;;;;;;0.59;74.39;102235.45;1815324;79;20992;-89
2020/12/19 07:13:21;;;;;;;43.85;21.57;;;;;;;0.61;74.34;102232.46;1786955;79;21003;-85
2020/12/19 07:15:52;;;;;;;43.40;20.55;;;;;;;0.62;74.37;102232.88;1786722;79;21055;-85
2020/12/19 07:18:29;;;;;;;33.88;18.85;;;;;;;0.66;74.24;102235.92;1786897;79;20976;-85
2020/12/19 07:21:07;;;;;;;40.05;20.25;;;;;;;0.67;74.13;102233.80;1814635;78;20999;-86
2020/12/19 07:23:40;;;;;;;39.30;19.98;;;;;;;0.68;74.14;102229.06;1788061;78;21004;-85
2020/12/19 07:26:14;;;;;;;34.83;19.10;;;;;;;0.68;74.14;102234.23;1726618;80;21065;-85
2020/12/19 07:31:37;;;;;;;55.75;29.98;;;;;;;0.81;73.80;102235.18;1845908;77;22722;-87
2020/12/19 07:34:14;;;;;;;40.95;21.02;;;;;;;0.76;73.79;102236.44;1821370;78;21029;-87
2020/12/19 07:36:53;;;;;;;34.23;17.92;;;;;;;0.77;73.66;102236.86;1787129;78;21718;-86
2020/12/19 07:39:25;;;;;;;33.60;16.80;;;;;;;0.78;73.69;102242.48;1821260;78;21006;-78
2020/12/19 07:42:09;;;;;;;34.18;17.77;;;;;;;0.81;73.72;102239.05;1812664;78;20915;-81
2020/12/19 07:44:39;;;;;;;39.58;19.90;;;;;;;0.83;73.76;102241.22;1719654;82;21050;-82
2020/12/19 07:47:13;;;;;;;33.58;16.73;;;;;;;0.90;73.67;102239.11;1775047;80;21026;-82
2020/12/19 07:49:47;;;;;;;38.17;17.65;;;;;;;0.93;73.57;102239.11;1719393;82;20994;-84
2020/12/19 07:52:24;;;;;;;35.65;20.50;;;;;;;0.96;73.59;102243.46;1712687;82;21417;-82
2020/12/19 07:54:59;;;;;;;49.75;23.32;;;;;;;0.98;73.45;102241.31;1749609;80;21022;-83
2020/12/19 07:57:31;;;;;;;43.85;26.10;;;;;;;1.07;73.38;102246.97;1746505;80;21030;-83
2020/12/19 08:00:06;;;;;;;42.80;25.82;;;;;;;1.16;73.26;102244.43;1719736;81;21105;-82
2020/12/19 08:02:40;;;;;;;42.50;21.42;;;;;;;1.21;73.28;102241.43;1719464;82;21133;-83
2020/12/19 08:05:11;;;;;;;42.88;21.55;;;;;;;1.27;73.08;102235.44;1733183;79;20975;-82
2020/12/19 08:07:41;;;;;;;42.17;21.97;;;;;;;1.35;73.13;102229.86;1751320;80;20947;-81
2020/12/19 08:10:13;;;;;;;42.45;19.52;;;;;;;1.43;73.10;102228.18;1751378;80;20955;-83
2020/12/19 08:12:44;;;;;;;40.52;20.37;;;;;;;1.48;72.89;102228.19;1782204;79;21459;-86
2020/12/19 08:18:12;;;;;;;38.92;20.08;;;;;;;1.55;72.87;102223.91;1852657;77;22894;-85
2020/12/19 08:20:45;;;;;;;42.33;20.90;;;;;;;1.50;72.76;102225.19;1815325;78;21499;-82
2020/12/19 08:23:17;;;;;;;39.13;18.80;;;;;;;1.54;72.70;102221.76;1737899;78;21256;-83
2020/12/19 08:25:46;;;;;;;39.03;20.60;;;;;;;1.55;72.61;102213.13;1788501;78;21013;-82
2020/12/19 08:28:20;;;;;;;39.38;19.90;;;;;;;1.53;72.63;102212.70;1674290;82;21425;-83
2020/12/19 08:30:52;;;;;;;37.20;18.17;;;;;;;1.51;72.69;102206.22;1788013;78;20973;-85
2020/12/19 08:33:21;;;;;;;44.00;19.52;;;;;;;1.52;72.66;102210.55;1721122;82;20978;-83
2020/12/19 08:35:51;;;;;;;42.48;21.23;;;;;;;1.55;72.62;102207.10;1788742;78;21722;-83
2020/12/19 08:38:24;;;;;;;34.70;18.70;;;;;;;1.57;72.62;102209.27;1820222;78;21471;-84
2020/12/19 08:41:03;;;;;;;31.73;17.98;;;;;;;1.59;72.66;102207.55;1720882;82;20927;-83
2020/12/19 08:43:34;;;;;;;36.13;19.32;;;;;;;1.61;72.63;102204.55;1788463;78;20950;-82
2020/12/19 08:46:10;;;;;;;44.85;23.80;;;;;;;1.63;72.57;102196.36;1764034;78;20962;-83
2020/12/19 08:48:39;;;;;;;36.55;19.48;;;;;;;1.62;72.51;102190.73;1750457;81;21223;-83
2020/12/19 08:51:11;;;;;;;39.03;21.00;;;;;;;1.65;72.53;102193.35;1788527;78;20983;-85
2020/12/19 08:53:39;;;;;;;38.88;21.20;;;;;;;1.63;72.51;102192.05;1721476;81;20986;-78
2020/12/19 08:56:17;;;;;;;37.65;21.55;;;;;;;1.61;72.75;102184.71;1788871;78;21044;-79
2020/12/19 08:58:58;;;;;;;41.20;23.60;;;;;;;1.65;72.80;102190.77;1721070;82;20934;-79
2020/12/19 09:01:32;;;;;;;45.98;23.77;;;;;;;1.67;72.85;102190.34;1788807;78;21097;-79
2020/12/19 09:04:09;;;;;;;41.20;19.52;;;;;;;1.70;72.63;102188.19;1788397;78;21400;-77
2020/12/19 09:06:50;;;;;;;41.08;19.90;;;;;;;1.74;72.41;102189.92;1783094;78;21029;-77
2020/12/19 09:09:28;;;;;;;37.90;19.07;;;;;;;1.76;72.27;102184.33;1788853;78;21041;-84
2020/12/19 09:12:09;;;;;;;41.85;21.97;;;;;;;1.74;72.27;102182.17;1820620;78;21025;-79
2020/12/19 09:17:31;;;;;;;43.78;23.60;;;;;;;1.76;72.28;102173.98;1822167;77;22109;-83
2020/12/19 09:20:05;;;;;;;34.18;18.73;;;;;;;1.71;72.32;102175.67;1797595;78;20978;-79
2020/12/19 09:22:36;;;;;;;31.73;17.25;;;;;;;1.76;72.32;102177.86;1796050;78;20989;-80
2020/12/19 09:25:04;;;;;;;36.55;20.27;;;;;;;1.79;72.19;102180.01;1762248;80;21026;-80
2020/12/19 09:27:33;;;;;;;36.50;21.37;;;;;;;1.78;72.28;102176.11;1731304;81;20971;-86
2020/12/19 09:30:05;;;;;;;39.67;21.70;;;;;;;1.77;72.32;102172.67;1740595;81;20978;-84
2020/12/19 09:32:32;;;;;;;43.63;20.85;;;;;;;1.79;72.33;102173.98;1732794;81;21081;-83
2020/12/19 09:35:02;;;;;;;37.45;20.17;;;;;;;1.80;72.35;102173.10;1741405;81;21111;-83
2020/12/19 09:37:31;;;;;;;38.65;20.95;;;;;;;1.80;72.22;102172.70;1731199;81;21046;-84
2020/12/19 09:40:02;;;;;;;38.45;21.65;;;;;;;1.80;72.14;102168.81;1768358;81;20970;-83
2020/12/19 09:42:30;;;;;;;43.02;21.73;;;;;;;1.78;72.21;102167.95;1729912;81;21475;-82
2020/12/19 09:45:01;;;;;;;48.60;23.98;;;;;;;1.79;72.26;102166.22;1738333;81;21069;-82
2020/12/19 09:47:30;;;;;;;40.17;23.38;;;;;;;1.78;72.23;102169.64;1738090;81;21163;-81
2020/12/19 09:49:58;;;;;;;43.80;23.73;;;;;;;1.78;72.19;102158.90;1728866;81;20979;-81
2020/12/19 09:52:26;;;;;;;48.70;24.40;;;;;;;1.79;72.06;102164.92;1738107;81;21668;-81
2020/12/19 09:54:54;;;;;;;42.78;23.27;;;;;;;1.80;72.00;102164.94;1729002;81;20954;-80
2020/12/19 09:57:23;;;;;;;41.23;22.50;;;;;;;1.78;72.16;102156.72;1737980;81;20986;-83
2020/12/19 09:59:51;;;;;;;43.42;23.62;;;;;;;1.78;72.21;102161.48;1729014;81;22154;-82
2020/12/19 10:02:19;;;;;;;53.48;30.35;;;;;;;1.77;72.12;102154.56;1738522;81;21033;-86
2020/12/19 10:04:55;;;;;;;52.55;28.85;;;;;;;1.77;72.24;102149.39;1729284;81;20939;-84
2020/12/19 10:07:30;;;;;;;43.25;19.98;;;;;;;1.81;72.18;102148.98;1766754;81;20997;-86
2020/12/19 10:09:58;;;;;;;37.65;22.25;;;;;;;1.81;72.17;102145.10;1729340;81;21089;-80
2020/12/19 10:12:27;;;;;;;37.20;20.27;;;;;;;1.77;72.21;102138.20;1696416;81;21179;-81
2020/12/19 10:14:55;;;;;;;38.33;23.65;;;;;;;1.75;72.32;102139.91;1661484;85;20989;-78
2020/12/19 10:17:23;;;;;;;40.70;24.85;;;;;;;1.75;72.31;102137.33;1647556;85;21009;-79
2020/12/19 10:19:51;;;;;;;41.48;21.17;;;;;;;1.75;72.31;102136.03;1647618;85;21045;-79
2020/12/19 10:22:19;;;;;;;39.88;21.65;;;;;;;1.76;72.30;102134.75;1647658;85;20954;-78
2020/12/19 10:24:48;;;;;;;29.87;16.42;;;;;;;1.78;72.25;102126.97;1647550;85;21063;-80
2020/12/19 10:27:16;;;;;;;29.98;18.07;;;;;;;1.74;72.18;102123.55;1647221;85;20994;-79
2020/12/19 10:29:44;;;;;;;31.62;17.80;;;;;;;1.71;72.32;102123.52;1647277;85;21061;-81
2020/12/19 10:32:13;;;;;;;34.20;18.35;;;;;;;1.69;72.32;102123.98;1647396;85;21049;-80
2020/12/19 10:34:41;;;;;;;30.82;18.87;;;;;;;1.69;72.34;102125.27;1647234;85;21106;-80
2020/12/19 10:37:09;;;;;;;31.10;17.00;;;;;;;1.73;72.28;102121.80;1647457;85;21014;-75
2020/12/19 10:39:37;;;;;;;29.30;16.93;;;;;;;1.75;72.07;102116.64;1647118;85;20994;-76
2020/12/19 10:42:05;;;;;;;38.83;17.92;;;;;;;1.73;72.11;102108.02;1646994;85;20959;-77
2020/12/19 10:44:35;;;;;;;35.00;19.87;;;;;;;1.71;72.15;102118.34;1676481;84;20982;-77
2020/12/19 10:47:03;;;;;;;32.45;18.50;;;;;;;1.73;72.22;102109.31;1647323;85;21053;-78
2020/12/19 10:49:31;;;;;;;32.58;17.30;;;;;;;1.75;72.20;102111.03;1647017;85;21193;-79
2020/12/19 10:52:04;;;;;;;37.95;19.92;;;;;;;1.78;72.16;102110.16;1647169;85;21001;-81
2020/12/19 10:54:32;;;;;;;36.10;19.75;;;;;;;1.76;72.13;102114.06;1647151;85;21037;-79
2020/12/19 10:57:00;;;;;;;33.88;19.87;;;;;;;1.78;72.13;102114.05;1647059;85;21106;-79
2020/12/19 10:59:29;;;;;;;39.98;20.48;;;;;;;1.80;72.13;102113.62;1647102;85;21523;-80
2020/12/19 11:01:57;;;;;;;40.90;23.02;;;;;;;1.79;72.34;102114.49;1647153;85;21948;-79
2020/12/19 11:04:25;;;;;;;41.48;22.02;;;;;;;1.77;72.42;102117.06;1647106;85;21006;-80
2020/12/19 11:06:54;;;;;;;37.95;22.93;;;;;;;1.78;72.45;102119.22;1647282;85;21502;-78
2020/12/19 11:09:21;;;;;;;40.70;22.80;;;;;;;1.79;72.54;102113.20;1647229;85;21543;-81
2020/12/19 11:11:54;;;;;;;36.83;20.75;;;;;;;1.84;72.64;102121.81;1636710;86;21137;-82
2020/12/19 11:14:25;;;;;;;37.65;20.70;;;;;;;1.88;72.52;102117.08;1623330;85;21986;-86
2020/12/19 11:17:32;;;;;;;37.58;20.52;;;;;;;1.93;72.48;102109.31;1816393;79;23999;-85
2020/12/19 11:20:34;;;;;;;42.60;23.87;;;;;;;1.93;72.57;102113.20;1826626;77;24524;-85
2020/12/19 11:23:04;;;;;;;43.33;22.90;;;;;;;1.93;72.39;102114.48;1822611;78;20990;-83
2020/12/19 11:25:34;;;;;;;39.85;22.75;;;;;;;1.92;72.29;102111.05;1795867;78;21307;-85
2020/12/19 11:28:03;;;;;;;40.85;22.13;;;;;;;1.92;72.31;102111.05;1798297;78;20922;-85
2020/12/19 11:30:48;;;;;;;44.95;23.15;;;;;;;1.93;72.16;102112.76;1798076;78;20926;-86
2020/12/19 11:33:28;;;;;;;;;;;;;;;1.91;72.15;102114.48;1825138;78;21502;-86
2020/12/19 11:36:03;;;;;;;51.15;23.65;;;;;;;1.89;72.24;102107.59;1818399;78;20132;-85
2020/12/19 11:38:34;;;;;;;50.63;27.10;;;;;;;1.86;72.40;102113.62;1797867;78;21043;-85
2020/12/19 11:41:10;;;;;;;46.65;25.57;;;;;;;1.85;72.49;102110.63;1797873;78;21017;-84
2020/12/19 11:43:40;;;;;;;43.98;21.65;;;;;;;1.88;72.48;102106.73;1798205;78;21017;-84